Time;durP1;ratioP1;P1;durP2;ratioP2;P2;SDS_P1;SDS_P2;PMS_P1;PMS_P2;Temp;Humidity;BMP_temperature;BMP_pressure;BME280_temperature;BME280_humidity;BME280_pressure;Samples;Min_cycle;Max_cycle;Signal;HPM_P1;HPM_P2
2022/05/13 00:01:41;;;;;;;13.80;9.82;;;;;;;16.77;90.31;96572.09;5051064;28;20608;-80
2022/05/13 00:04:07;;;;;;;13.30;9.63;;;;;;;16.78;90.53;96573.66;5050053;28;20057;-78
2022/05/13 00:06:34;;;;;;;13.35;9.45;;;;;;;16.83;90.47;96576.16;5050740;28;20051;-79
2022/05/13 00:09:01;;;;;;;12.88;9.98;;;;;;;16.89;90.23;96573.94;5050055;28;20048;-80
2022/05/13 00:11:27;;;;;;;12.82;9.77;;;;;;;16.91;89.93;96582.63;5050096;28;20047;-78
2022/05/13 00:13:55;;;;;;;14.65;9.27;;;;;;;16.86;89.70;96575.47;5061585;28;20056;-78
2022/05/13 00:16:22;;;;;;;16.83;9.82;;;;;;;16.84;89.83;96577.75;5070333;28;20053;-79
2022/05/13 00:18:49;;;;;;;16.80;9.93;;;;;;;16.85;89.84;96579.34;5070005;28;20044;-79
2022/05/13 00:21:15;;;;;;;14.50;9.82;;;;;;;16.87;89.55;96579.03;5068937;28;20055;-79
2022/05/13 00:23:42;;;;;;;14.18;9.88;;;;;;;16.83;89.91;96575.38;5068865;28;20055;-79
2022/05/13 00:26:08;;;;;;;17.33;9.85;;;;;;;16.86;89.67;96575.47;5067565;28;20140;-79
2022/05/13 00:28:35;;;;;;;14.05;10.13;;;;;;;16.90;89.64;96565.34;5067151;28;20063;-80
2022/05/13 00:31:04;;;;;;;17.40;11.98;;;;;;;16.91;89.73;96561.47;5066298;28;20065;-79
2022/05/13 00:33:32;;;;;;;14.55;11.52;;;;;;;16.95;90.11;96567.81;5068244;28;20663;-79
2022/05/13 00:35:59;;;;;;;15.35;11.38;;;;;;;16.92;90.36;96559.50;5068850;28;20621;-81
2022/05/13 00:38:25;;;;;;;15.30;10.63;;;;;;;16.88;90.85;96562.16;5068054;28;20048;-78
2022/05/13 00:40:52;;;;;;;13.77;11.20;;;;;;;16.90;90.83;96559.84;5068326;28;20060;-79
2022/05/13 00:43:44;;;;;;;17.55;10.98;;;;;;;16.88;90.78;96561.34;5068324;28;20135;-83
2022/05/13 00:46:13;;;;;;;15.13;10.48;;;;;;;16.86;90.24;96547.97;5068546;28;20098;-78
2022/05/13 00:48:40;;;;;;;16.38;12.02;;;;;;;16.83;90.33;96550.63;5068543;28;20052;-79
2022/05/13 00:51:10;;;;;;;15.10;11.23;;;;;;;16.87;90.37;96560.56;5067913;28;20052;-78
2022/05/13 00:53:39;;;;;;;15.93;11.15;;;;;;;16.87;90.29;96555.06;5069133;28;20051;-79
2022/05/13 00:56:06;;;;;;;15.35;11.65;;;;;;;16.85;90.41;96551.06;5067669;28;20056;-80
2022/05/13 00:58:35;;;;;;;20.17;12.43;;;;;;;16.90;90.61;96551.59;5068585;28;20052;-79
2022/05/13 01:01:02;;;;;;;17.83;11.52;;;;;;;16.95;90.69;96545.81;5068160;28;20075;-77
2022/05/13 01:03:31;;;;;;;16.77;11.38;;;;;;;16.96;90.72;96541.13;5068329;28;20040;-79
2022/05/13 01:06:01;;;;;;;16.70;12.95;;;;;;;16.99;90.82;96556.13;5069172;28;20055;-78
2022/05/13 01:08:30;;;;;;;18.92;13.20;;;;;;;16.97;90.88;96552.94;5068809;28;20052;-78
2022/05/13 01:10:58;;;;;;;18.48;12.55;;;;;;;17.02;90.98;96553.47;5070589;28;20117;-78
2022/05/13 01:13:28;;;;;;;16.83;10.93;;;;;;;17.09;90.62;96550.09;5076286;28;20033;-79
2022/05/13 01:15:55;;;;;;;15.90;11.18;;;;;;;17.09;90.17;96542.63;5066964;28;20078;-78
2022/05/13 01:18:26;;;;;;;14.80;11.75;;;;;;;17.08;90.15;96538.28;5050599;28;20132;-79
2022/05/13 01:20:55;;;;;;;13.35;10.70;;;;;;;17.13;89.86;96542.72;5048988;28;20644;-79
2022/05/13 01:23:26;;;;;;;19.20;10.85;;;;;;;17.12;89.20;96541.13;5047601;28;20049;-78
2022/05/13 01:25:54;;;;;;;14.68;10.40;;;;;;;17.13;88.70;96539.97;5047194;28;20687;-79
2022/05/13 01:28:23;;;;;;;15.70;10.30;;;;;;;17.11;88.58;96536.78;5046359;28;20504;-79
2022/05/13 01:30:52;;;;;;;18.65;11.68;;;;;;;17.12;88.49;96538.34;5046522;28;20049;-79
2022/05/13 01:33:20;;;;;;;15.23;10.20;;;;;;;17.14;88.60;96542.38;5046230;28;20049;-79
2022/05/13 01:35:49;;;;;;;14.45;9.85;;;;;;;17.14;88.46;96547.06;5047438;28;20143;-79
2022/05/13 01:38:17;;;;;;;13.32;9.77;;;;;;;17.08;87.98;96532.00;5047125;28;20059;-78
2022/05/13 01:40:45;;;;;;;13.48;10.18;;;;;;;17.11;88.10;96531.28;5047053;28;20053;-79
2022/05/13 01:43:12;;;;;;;14.43;9.60;;;;;;;17.11;87.77;96529.31;5051660;28;20048;-79
2022/05/13 01:45:39;;;;;;;13.60;10.30;;;;;;;17.08;87.59;96532.00;5067312;28;20053;-78
2022/05/13 01:48:08;;;;;;;12.93;9.70;;;;;;;17.03;87.86;96535.00;5066442;28;20052;-78
2022/05/13 01:50:35;;;;;;;15.32;9.88;;;;;;;17.02;87.52;96544.41;5066893;28;20040;-79
2022/05/13 01:53:02;;;;;;;11.65;9.50;;;;;;;16.99;87.74;96534.13;5066907;28;20052;-78
2022/05/13 01:55:28;;;;;;;12.43;9.93;;;;;;;16.98;87.85;96538.81;5067733;28;20284;-78
2022/05/13 01:57:58;;;;;;;16.55;9.82;;;;;;;17.00;87.87;96531.00;5067472;28;20044;-78
2022/05/13 02:00:24;;;;;;;13.90;9.65;;;;;;;16.99;87.38;96542.38;5067355;28;20128;-79
2022/05/13 02:05:36;;;;;;;16.45;10.90;;;;;;;17.00;87.27;96532.97;5067803;28;20641;-78
2022/05/13 02:08:02;;;;;;;14.23;10.27;;;;;;;17.05;87.39;96555.50;5066657;28;20044;-79
2022/05/13 02:10:29;;;;;;;12.45;9.75;;;;;;;17.07;87.40;96552.38;5067381;28;20570;-80
2022/05/13 02:12:57;;;;;;;15.93;9.70;;;;;;;17.03;87.21;96555.06;5066852;28;20576;-80
2022/05/13 02:15:24;;;;;;;15.25;10.68;;;;;;;17.04;87.30;96555.88;5047683;28;20040;-78
2022/05/13 02:17:51;;;;;;;16.42;11.55;;;;;;;17.07;87.46;96541.38;5047873;28;20049;-79
2022/05/13 02:20:18;;;;;;;15.63;11.55;;;;;;;17.09;87.57;96548.13;5047347;28;20079;-79
2022/05/13 02:22:44;;;;;;;16.95;10.40;;;;;;;17.14;87.79;96544.31;5047851;28;20083;-78
2022/05/13 02:25:12;;;;;;;13.90;10.40;;;;;;;17.17;87.88;96551.84;5046778;28;20072;-80
2022/05/13 02:27:38;;;;;;;13.25;10.48;;;;;;;17.17;87.20;96551.84;5047988;28;20049;-79
2022/05/13 02:30:08;;;;;;;14.18;10.23;;;;;;;17.19;86.87;96546.81;5046972;28;20052;-79
2022/05/13 02:32:35;;;;;;;14.02;10.98;;;;;;;17.19;86.64;96549.56;5048551;28;20048;-80
2022/05/13 02:35:02;;;;;;;16.15;10.18;;;;;;;17.20;86.75;96545.66;5046868;28;20049;-79
2022/05/13 02:37:28;;;;;;;13.48;10.48;;;;;;;17.22;86.57;96543.31;5047974;28;20041;-78
2022/05/13 02:39:55;;;;;;;13.32;10.57;;;;;;;17.23;86.20;96544.94;5047413;28;20063;-78
2022/05/13 02:42:21;;;;;;;16.17;10.68;;;;;;;17.28;86.52;96546.59;5046920;28;20087;-79
2022/05/13 02:44:48;;;;;;;14.70;10.65;;;;;;;17.28;86.29;96539.19;5047808;28;20056;-78
2022/05/13 02:47:16;;;;;;;17.92;10.88;;;;;;;17.26;86.41;96541.47;5047023;28;20053;-78
2022/05/13 02:49:43;;;;;;;14.13;10.80;;;;;;;17.26;85.76;96544.22;5047437;28;20520;-78
2022/05/13 02:52:10;;;;;;;16.88;11.50;;;;;;;17.24;85.46;96541.03;5046673;28;20199;-80
2022/05/13 02:54:37;;;;;;;17.95;10.38;;;;;;;17.23;86.09;96533.94;5047193;28;20063;-79
2022/05/13 02:57:05;;;;;;;12.90;10.80;;;;;;;17.25;85.57;96528.88;5047382;28;20063;-78
2022/05/13 02:59:32;;;;;;;12.98;10.25;;;;;;;17.22;85.87;96526.81;5047631;28;20057;-78
2022/05/13 03:01:58;;;;;;;16.95;11.73;;;;;;;17.24;85.64;96535.53;5047893;28;20059;-79
2022/05/13 03:04:26;;;;;;;14.60;10.98;;;;;;;17.15;85.81;96543.16;5047885;28;20048;-80
2022/05/13 03:06:53;;;;;;;16.05;11.52;;;;;;;17.12;85.73;96533.69;5047699;28;20048;-78
2022/05/13 03:09:20;;;;;;;17.33;11.60;;;;;;;17.13;86.01;96532.53;5046843;28;20053;-78
2022/05/13 03:11:46;;;;;;;14.50;11.00;;;;;;;17.12;85.91;96536.44;5047624;28;20041;-78
2022/05/13 03:14:13;;;;;;;21.95;12.70;;;;;;;17.05;86.04;96532.69;5061165;28;20495;-78
2022/05/13 03:16:39;;;;;;;16.65;11.40;;;;;;;17.00;86.08;96531.00;5074562;28;20036;-80
2022/05/13 03:19:06;;;;;;;20.55;12.30;;;;;;;17.01;86.07;96526.28;5083862;28;20099;-80
2022/05/13 03:21:34;;;;;;;15.50;11.30;;;;;;;16.97;86.33;96536.44;5076384;28;20664;-80
2022/05/13 03:24:00;;;;;;;19.25;13.15;;;;;;;16.95;86.60;96526.56;5071951;28;20041;-78
2022/05/13 03:26:27;;;;;;;15.68;10.90;;;;;;;16.92;86.72;96535.53;5072248;28;20578;-78
2022/05/13 03:28:53;;;;;;;16.45;10.55;;;;;;;16.93;86.51;96537.13;5071467;28;20131;-79
2022/05/13 03:31:20;;;;;;;14.13;10.45;;;;;;;16.86;86.76;96542.47;5071132;28;20046;-77
2022/05/13 03:33:47;;;;;;;17.60;11.38;;;;;;;16.82;87.18;96541.56;5071655;28;20504;-79
2022/05/13 03:36:14;;;;;;;18.60;12.07;;;;;;;16.70;87.93;96538.84;5071918;28;20056;-80
2022/05/13 03:38:42;;;;;;;14.38;10.73;;;;;;;16.72;87.76;96539.34;5071470;28;20127;-79
2022/05/13 03:41:09;;;;;;;13.13;9.57;;;;;;;16.65;87.33;96536.34;5068918;28;20075;-79
2022/05/13 03:43:36;;;;;;;13.80;10.88;;;;;;;16.68;87.16;96538.41;5071595;28;20048;-79
2022/05/13 03:46:03;;;;;;;14.15;10.35;;;;;;;16.65;86.84;96533.59;5071077;28;20072;-78
2022/05/13 03:48:30;;;;;;;13.30;9.82;;;;;;;16.66;86.78;96525.03;5071742;28;20494;-79
2022/05/13 03:50:57;;;;;;;16.25;10.38;;;;;;;16.69;86.64;96524.31;5071389;28;20052;-79
2022/05/13 03:53:24;;;;;;;12.15;8.70;;;;;;;16.64;85.71;96523.75;5070453;28;20043;-78
2022/05/13 03:55:52;;;;;;;12.45;8.68;;;;;;;16.68;85.68;96530.97;5070460;28;20051;-79
2022/05/13 03:58:18;;;;;;;11.60;8.98;;;;;;;16.63;85.58;96533.16;5070172;28;20067;-78
2022/05/13 04:00:46;;;;;;;14.20;9.38;;;;;;;16.62;85.32;96532.38;5075253;28;20044;-80
2022/05/13 04:03:13;;;;;;;12.98;7.97;;;;;;;16.59;84.71;96533.06;5074242;28;20060;-80
2022/05/13 04:11:11;;;;;;;10.55;8.10;;;;;;;16.55;84.44;96525.88;5071157;28;20523;-79
2022/05/13 04:16:21;;;;;;;12.43;7.90;;;;;;;16.62;83.93;96526.88;5074295;28;20063;-80
2022/05/13 04:18:50;;;;;;;12.52;7.68;;;;;;;16.65;83.90;96523.44;5074421;28;20051;-80
2022/05/13 04:21:20;;;;;;;14.82;8.45;;;;;;;16.71;84.21;96529.50;5073525;28;20051;-80
2022/05/13 04:23:50;;;;;;;12.82;8.07;;;;;;;16.77;84.82;96530.84;5074325;28;20161;-80
2022/05/13 04:26:18;;;;;;;10.10;7.95;;;;;;;16.80;85.08;96530.09;5074526;28;20050;-80
2022/05/13 04:28:48;;;;;;;14.10;8.27;;;;;;;16.81;85.11;96528.97;5074216;28;20051;-79
2022/05/13 04:31:17;;;;;;;11.57;7.97;;;;;;;16.81;84.30;96539.16;5072074;28;20052;-80
2022/05/13 04:33:45;;;;;;;27.20;18.10;;;;;;;16.85;83.79;96551.84;5072971;28;20157;-79
2022/05/13 04:36:11;;;;;;;9.82;7.72;;;;;;;16.85;83.49;96556.56;5073840;28;20439;-79
2022/05/13 04:38:38;;;;;;;36.85;26.27;;;;;;;16.86;83.54;96564.47;5071509;28;20094;-80
2022/05/13 04:43:53;;;;;;;626.08;556.15;;;;;;;16.83;83.64;96565.16;5073666;28;20052;-79
2022/05/13 04:46:20;;;;;;;28.17;18.23;;;;;;;16.86;83.66;96583.72;5073558;28;20050;-81
2022/05/13 04:48:47;;;;;;;14.48;8.23;;;;;;;16.86;84.07;96578.22;5074083;28;20492;-79
2022/05/13 04:51:14;;;;;;;14.23;8.48;;;;;;;16.90;84.09;96581.84;5072742;28;20049;-78
2022/05/13 04:53:41;;;;;;;12.23;8.57;;;;;;;16.89;83.93;96587.69;5073236;28;20079;-79
2022/05/13 04:56:09;;;;;;;12.20;8.73;;;;;;;16.93;83.89;96596.84;5074491;28;20052;-80
2022/05/13 04:58:36;;;;;;;11.48;8.82;;;;;;;16.98;84.23;96609.56;5073536;28;20044;-79
2022/05/13 05:01:05;;;;;;;13.30;9.50;;;;;;;17.02;84.59;96616.75;5074244;28;20060;-79
2022/05/13 05:03:32;;;;;;;18.10;11.10;;;;;;;17.01;84.84;96619.84;5076485;28;20056;-79
2022/05/13 05:06:00;;;;;;;16.98;11.00;;;;;;;16.92;85.52;96620.81;5076471;28;20072;-80
2022/05/13 05:08:28;;;;;;;17.08;11.77;;;;;;;16.84;86.46;96621.75;5078740;28;20044;-79
2022/05/13 05:10:55;;;;;;;19.55;12.20;;;;;;;16.75;87.35;96618.38;5076662;28;20158;-80
2022/05/13 05:13:24;;;;;;;19.33;12.13;;;;;;;16.68;88.31;96624.44;5071809;28;20105;-80
2022/05/13 05:15:51;;;;;;;10.63;8.30;;;;;;;16.53;87.93;96610.66;5073581;28;20048;-81
2022/05/13 05:18:19;;;;;;;15.63;9.85;;;;;;;16.28;89.06;96610.72;5058582;28;20072;-78
2022/05/13 05:20:47;;;;;;;15.68;10.15;;;;;;;16.25;89.59;96611.44;5053162;28;20053;-79
2022/05/13 05:23:14;;;;;;;11.32;10.05;;;;;;;16.14;90.01;96611.13;5062982;28;20513;-79
2022/05/13 05:25:42;;;;;;;14.57;10.50;;;;;;;16.07;90.48;96599.13;5061802;28;20044;-79
2022/05/13 05:28:09;;;;;;;15.02;9.82;;;;;;;15.95;90.95;96597.22;5059142;28;20502;-79
2022/05/13 05:30:36;;;;;;;13.82;10.25;;;;;;;15.97;91.16;96594.09;5051184;28;20059;-81
2022/05/13 05:33:02;;;;;;;14.77;10.07;;;;;;;16.03;90.68;96601.00;5050444;28;20044;-79
2022/05/13 05:35:30;;;;;;;14.73;10.07;;;;;;;15.99;90.49;96598.13;5050720;28;20056;-80
2022/05/13 05:37:59;;;;;;;16.50;9.93;;;;;;;16.04;90.57;96595.13;5050835;28;20044;-79
2022/05/13 05:40:26;;;;;;;12.10;9.25;;;;;;;16.01;90.48;96595.03;5038436;28;20120;-79
2022/05/13 05:42:52;;;;;;;13.25;9.70;;;;;;;16.01;90.54;96593.06;5064162;28;20571;-79
2022/05/13 05:45:24;;;;;;;12.35;9.57;;;;;;;15.98;90.64;96602.03;5068738;28;20533;-80
2022/05/13 05:47:50;;;;;;;14.55;10.00;;;;;;;15.97;91.29;96602.34;5069175;28;20075;-79
2022/05/13 05:50:19;;;;;;;12.20;9.90;;;;;;;15.93;91.35;96613.25;5068539;28;20052;-79
2022/05/13 05:52:48;;;;;;;17.40;11.30;;;;;;;15.97;91.78;96599.59;5069540;28;20050;-79
2022/05/13 05:58:02;;;;;;;13.18;9.40;;;;;;;15.90;91.69;96609.22;5068021;28;20059;-79
2022/05/13 06:00:29;;;;;;;14.70;9.63;;;;;;;15.77;91.91;96613.16;5068546;28;20557;-79
2022/05/13 06:02:55;;;;;;;14.48;9.70;;;;;;;15.67;92.11;96610.88;5067955;28;20051;-78
2022/05/13 06:05:23;;;;;;;22.30;10.50;;;;;;;15.66;92.57;96623.00;5068538;28;20055;-79
2022/05/13 06:07:52;;;;;;;14.40;10.60;;;;;;;15.61;92.70;96621.25;5068889;28;20131;-79
2022/05/13 06:10:19;;;;;;;18.83;10.45;;;;;;;15.59;93.11;96609.81;5068217;28;20060;-79
2022/05/13 06:12:46;;;;;;;15.25;10.32;;;;;;;15.56;93.20;96615.22;5052511;28;20408;-78
2022/05/13 06:15:15;;;;;;;13.35;9.32;;;;;;;15.51;93.48;96616.22;5047850;28;20518;-78
2022/05/13 06:17:46;;;;;;;12.45;9.13;;;;;;;15.40;93.94;96613.16;5048643;28;20049;-79
2022/05/13 06:20:14;;;;;;;14.50;10.25;;;;;;;15.43;94.61;96619.88;5047762;28;20063;-79
2022/05/13 06:22:41;;;;;;;14.80;10.55;;;;;;;15.39;95.10;96619.75;5047953;28;20056;-79
2022/05/13 06:25:11;;;;;;;15.65;10.00;;;;;;;15.40;94.80;96615.88;5047955;28;20064;-79
2022/05/13 06:27:38;;;;;;;14.65;9.88;;;;;;;15.46;95.46;96615.66;5048165;28;20049;-78
2022/05/13 06:30:07;;;;;;;17.10;11.18;;;;;;;15.48;95.77;96616.09;5047677;28;20052;-78
2022/05/13 06:32:33;;;;;;;14.13;9.85;;;;;;;15.43;95.36;96619.06;5048601;28;20048;-78
2022/05/13 06:35:00;;;;;;;12.95;9.63;;;;;;;15.44;95.48;96618.72;5048461;28;20057;-79
2022/05/13 06:37:26;;;;;;;13.02;9.80;;;;;;;15.49;95.51;96609.47;5048594;28;20658;-79
2022/05/13 06:39:53;;;;;;;16.98;10.05;;;;;;;15.53;95.43;96602.16;5048572;28;20063;-79
2022/05/13 06:42:21;;;;;;;16.50;10.95;;;;;;;15.60;95.68;96602.38;5058177;28;20214;-78
2022/05/13 06:44:47;;;;;;;17.02;11.55;;;;;;;15.68;95.81;96597.94;5068536;28;20434;-77
2022/05/13 06:47:15;;;;;;;15.30;11.77;;;;;;;15.75;95.49;96601.69;5067713;28;20040;-79
2022/05/13 06:49:41;;;;;;;12.98;10.20;;;;;;;15.80;95.66;96595.97;5067691;28;20059;-79
2022/05/13 06:52:08;;;;;;;13.52;10.07;;;;;;;15.75;95.11;96604.44;5067677;28;20397;-81
2022/05/13 06:54:35;;;;;;;17.95;11.82;;;;;;;15.78;95.68;96603.78;5067694;28;20123;-79
2022/05/13 06:57:01;;;;;;;14.98;10.38;;;;;;;15.74;95.19;96610.28;5071317;28;20183;-79
2022/05/13 06:59:29;;;;;;;14.52;9.75;;;;;;;15.75;95.46;96611.88;5072297;28;20044;-80
2022/05/13 07:01:56;;;;;;;22.45;11.20;;;;;;;15.79;95.23;96621.84;5072386;28;20415;-79
2022/05/13 07:04:22;;;;;;;13.25;9.25;;;;;;;15.89;94.84;96604.88;5071740;28;20495;-78
2022/05/13 07:06:49;;;;;;;13.57;9.68;;;;;;;15.89;93.96;96604.88;5072451;28;20047;-78
2022/05/13 07:09:15;;;;;;;28.70;12.80;;;;;;;16.00;94.19;96607.16;5071758;28;20525;-78
2022/05/13 07:11:44;;;;;;;12.93;9.02;;;;;;;16.14;94.34;96605.66;5071568;28;20045;-79
2022/05/13 07:14:11;;;;;;;14.93;8.73;;;;;;;16.13;94.02;96608.72;5071907;28;20153;-79
2022/05/13 07:16:44;;;;;;;11.52;8.48;;;;;;;16.11;94.03;96600.84;5072418;28;20881;-79
2022/05/13 07:19:11;;;;;;;39.67;24.95;;;;;;;16.10;94.35;96609.44;5072443;28;20056;-81
2022/05/13 07:21:38;;;;;;;11.82;7.85;;;;;;;16.15;94.30;96606.44;5073759;28;20083;-78
2022/05/13 07:24:05;;;;;;;8.57;7.15;;;;;;;16.23;93.09;96608.22;5076079;28;20051;-80
2022/05/13 07:26:32;;;;;;;16.50;9.88;;;;;;;16.23;93.43;96608.22;5090162;28;20109;-79
2022/05/13 07:28:58;;;;;;;531.53;478.80;;;;;;;16.17;92.02;96609.63;5079152;28;20048;-79
2022/05/13 07:31:25;;;;;;;13.68;7.03;;;;;;;16.22;92.32;96606.63;5072256;28;20048;-78
2022/05/13 07:33:53;;;;;;;9.25;6.18;;;;;;;16.35;91.82;96610.16;5071522;28;20048;-78
2022/05/13 07:36:20;;;;;;;11.27;6.20;;;;;;;16.33;89.51;96607.75;5069495;28;20041;-78
2022/05/13 07:41:27;;;;;;;8.65;6.30;;;;;;;16.55;89.71;96602.84;5066063;28;20048;-78
2022/05/13 07:43:53;;;;;;;9.82;6.22;;;;;;;16.65;89.13;96602.34;5049780;28;20055;-76
2022/05/13 07:46:20;;;;;;;12.05;6.82;;;;;;;16.77;90.24;96610.56;5049558;28;20045;-78
2022/05/13 07:48:46;;;;;;;8.93;6.90;;;;;;;16.89;89.81;96612.47;5050070;28;20045;-79
2022/05/13 07:51:14;;;;;;;9.98;6.38;;;;;;;16.97;88.52;96614.25;5049423;28;20117;-78
2022/05/13 07:53:41;;;;;;;9.85;7.03;;;;;;;17.05;88.01;96620.72;5050151;28;20139;-78
2022/05/13 07:56:09;;;;;;;9.80;6.70;;;;;;;17.11;87.89;96619.31;5048609;28;20079;-77
2022/05/13 07:58:35;;;;;;;10.25;7.15;;;;;;;17.18;87.74;96620.31;5048942;28;20045;-78
2022/05/13 08:01:03;;;;;;;13.60;7.80;;;;;;;17.14;87.51;96613.91;5049544;28;20057;-78
2022/05/13 08:03:31;;;;;;;13.38;8.45;;;;;;;17.20;87.15;96617.19;5049843;28;20048;-81
2022/05/13 08:06:02;;;;;;;16.65;7.50;;;;;;;17.27;87.14;96613.81;5048804;28;20056;-78
2022/05/13 08:08:35;;;;;;;10.95;7.68;;;;;;;17.46;87.08;96609.19;5048833;28;20130;-79
2022/05/13 08:11:05;;;;;;;11.32;7.72;;;;;;;17.69;86.09;96608.53;5050044;28;20052;-78
2022/05/13 08:13:34;;;;;;;11.98;7.65;;;;;;;17.83;88.01;96611.66;5049639;28;20044;-81
2022/05/13 08:16:01;;;;;;;10.05;7.70;;;;;;;17.99;87.80;96606.91;5049965;28;20130;-78
2022/05/13 08:18:29;;;;;;;11.55;7.90;;;;;;;18.13;87.33;96619.44;5048961;28;20045;-79
2022/05/13 08:20:56;;;;;;;10.52;7.57;;;;;;;18.24;86.75;96609.44;5049949;28;20068;-78
2022/05/13 08:23:22;;;;;;;8.30;6.30;;;;;;;18.30;80.61;96605.22;5049482;28;20037;-78
2022/05/13 08:25:50;;;;;;;9.85;6.60;;;;;;;18.34;81.13;96600.59;5050901;28;20053;-79
2022/05/13 08:28:19;;;;;;;12.98;7.68;;;;;;;18.35;81.39;96604.13;5050772;28;20408;-80
2022/05/13 08:30:46;;;;;;;11.55;8.07;;;;;;;18.29;84.72;96600.88;5050106;28;20049;-80
2022/05/13 08:33:13;;;;;;;9.45;6.47;;;;;;;18.50;81.66;96612.34;5050306;28;20045;-79
2022/05/13 08:35:44;;;;;;;7.72;6.20;;;;;;;18.70;82.78;96613.16;5050551;28;20782;-78
2022/05/13 08:38:11;;;;;;;7.05;5.88;;;;;;;18.66;80.17;96608.69;5050840;28;20049;-78
2022/05/13 08:40:54;;;;;;;8.85;5.95;;;;;;;18.60;79.15;96610.16;5051548;28;20051;-79
2022/05/13 08:43:24;;;;;;;8.63;5.88;;;;;;;18.60;81.41;96618.44;5069378;28;20063;-78
2022/05/13 08:45:55;;;;;;;9.00;6.30;;;;;;;18.59;80.73;96614.09;5070939;28;20052;-79
2022/05/13 08:48:30;;;;;;;10.30;6.43;;;;;;;18.54;81.49;96611.63;5071935;28;20060;-79
2022/05/13 08:51:04;;;;;;;11.07;6.53;;;;;;;18.24;79.41;96621.25;5071832;28;20464;-79
2022/05/13 08:53:36;;;;;;;7.88;5.95;;;;;;;18.18;80.27;96610.88;5071335;28;20053;-78
2022/05/13 08:56:08;;;;;;;11.13;6.55;;;;;;;18.11;80.49;96617.00;5070018;28;20060;-79
2022/05/13 08:58:41;;;;;;;8.38;6.40;;;;;;;18.11;81.97;96611.50;5070805;28;20049;-79
2022/05/13 09:01:14;;;;;;;15.43;6.75;;;;;;;18.22;81.78;96611.75;5070115;28;20063;-79
2022/05/13 09:03:41;;;;;;;;;;;;;;;18.23;82.69;96614.16;5070065;28;20048;-78
2022/05/13 09:06:15;;;;;;;21.17;7.25;;;;;;;18.15;83.15;96612.38;5067771;28;19924;-77
2022/05/13 09:08:43;;;;;;;14.77;7.30;;;;;;;18.04;83.88;96607.81;5067350;28;20043;-81
2022/05/13 09:11:16;;;;;;;10.95;7.38;;;;;;;17.92;82.64;96609.53;5066292;28;20049;-78
2022/05/13 09:13:54;;;;;;;15.30;8.05;;;;;;;17.80;83.52;96614.34;5068057;28;20072;-77
2022/05/13 09:16:31;;;;;;;13.10;8.45;;;;;;;17.71;84.94;96609.81;5067780;28;20061;-78
2022/05/13 09:19:04;;;;;;;15.05;8.50;;;;;;;17.68;85.56;96612.47;5066890;28;20056;-77
2022/05/13 09:21:33;;;;;;;17.75;9.57;;;;;;;17.45;87.16;96613.13;5066521;28;20075;-77
2022/05/13 09:23:59;;;;;;;12.90;9.05;;;;;;;17.07;87.58;96618.41;5067039;28;20139;-78
2022/05/13 09:26:27;;;;;;;18.15;10.68;;;;;;;17.06;89.13;96614.88;5066619;28;20051;-77
2022/05/13 09:29:08;;;;;;;15.23;10.00;;;;;;;17.06;89.92;96614.06;5066783;28;20051;-80
2022/05/13 09:31:39;;;;;;;14.88;10.20;;;;;;;17.16;89.69;96621.81;5067003;28;20048;-77
2022/05/13 09:34:15;;;;;;;19.33;12.70;;;;;;;17.19;90.27;96621.09;5068308;28;20864;-77
2022/05/13 09:36:42;;;;;;;17.65;12.88;;;;;;;17.09;91.25;96616.13;5070628;28;20044;-77
2022/05/13 09:39:21;;;;;;;20.33;13.30;;;;;;;17.10;91.73;96613.00;5077063;28;20048;-77
2022/05/13 09:41:48;;;;;;;16.25;11.70;;;;;;;17.04;92.34;96608.13;5071935;28;20053;-78
2022/05/13 09:44:22;;;;;;;20.13;12.95;;;;;;;17.10;92.23;96609.47;5066545;28;20059;-77
2022/05/13 09:46:51;;;;;;;21.33;14.45;;;;;;;17.03;92.28;96612.84;5066759;28;20059;-77
2022/05/13 09:49:33;;;;;;;36.28;16.30;;;;;;;16.88;92.93;96600.66;5066177;28;20051;-78
2022/05/13 09:52:07;;;;;;;28.02;14.30;;;;;;;16.91;94.29;96616.47;5066967;28;20079;-77
2022/05/13 09:54:35;;;;;;;28.35;16.05;;;;;;;16.87;94.54;96617.53;5066455;28;20051;-78
2022/05/13 09:57:08;;;;;;;21.17;13.70;;;;;;;16.80;94.95;96631.84;5065719;28;20599;-77
2022/05/13 09:59:38;;;;;;;16.98;12.55;;;;;;;16.82;94.82;96635.06;5065605;28;20743;-77
2022/05/13 10:02:19;;;;;;;21.10;12.05;;;;;;;16.80;94.30;96626.34;5064287;28;20052;-77
2022/05/13 10:04:50;;;;;;;253.23;219.32;;;;;;;16.81;94.36;96627.97;5065656;28;20494;-77
2022/05/13 10:07:17;;;;;;;27.13;13.93;;;;;;;16.81;94.82;96616.97;5065128;28;20048;-78
2022/05/13 10:15:27;;;;;;;500.60;193.50;;;;;;;17.01;95.84;96600.56;5045459;28;20068;-79
2022/05/13 10:18:01;;;;;;;23.30;13.75;;;;;;;17.06;96.04;96590.09;5046163;28;20045;-77
2022/05/13 10:20:33;;;;;;;55.03;44.67;;;;;;;17.13;96.23;96595.00;5045347;28;20520;-78
2022/05/13 10:23:06;;;;;;;46.15;18.73;;;;;;;17.10;96.41;96601.22;5045772;28;20586;-76
2022/05/13 10:25:41;;;;;;;22.85;14.02;;;;;;;17.17;96.75;96598.63;5045552;28;20045;-78
2022/05/13 10:28:12;;;;;;;33.67;14.57;;;;;;;17.22;96.70;96598.38;5044542;28;20049;-77
2022/05/13 10:30:45;;;;;;;36.20;17.80;;;;;;;16.92;93.91;96604.31;5044981;28;20045;-77
2022/05/13 10:33:20;;;;;;;456.67;155.30;;;;;;;16.83;94.33;96611.91;5045250;28;20102;-78
2022/05/13 10:35:53;;;;;;;15.15;10.43;;;;;;;16.84;94.91;96616.25;5045938;28;20416;-78
2022/05/13 10:38:26;;;;;;;21.67;11.95;;;;;;;16.70;94.80;96611.16;5044981;28;20463;-78
2022/05/13 10:40:54;;;;;;;;;;;;;;;16.72;95.20;96613.59;5045655;28;20053;-77
2022/05/13 10:43:28;;;;;;;20.40;11.50;;;;;;;16.71;94.93;96612.00;5064753;28;21180;-77
2022/05/13 10:46:07;;;;;;;12.38;8.93;;;;;;;16.69;95.33;96604.03;5065616;28;20049;-77
2022/05/13 10:48:34;;;;;;;15.55;9.45;;;;;;;16.68;94.43;96615.41;5065866;28;20040;-77
2022/05/13 10:51:09;;;;;;;13.77;9.55;;;;;;;16.63;94.73;96615.66;5065354;28;20059;-78
2022/05/13 10:53:51;;;;;;;14.18;10.50;;;;;;;16.66;95.08;96631.47;5065560;28;20041;-78
2022/05/13 10:56:25;;;;;;;14.55;9.10;;;;;;;16.64;95.00;96633.75;5065045;28;20056;-77
2022/05/13 10:59:02;;;;;;;12.35;10.50;;;;;;;16.60;95.17;96635.59;5065159;28;20068;-77
2022/05/13 11:01:41;;;;;;;15.50;10.20;;;;;;;16.58;95.33;96635.94;5064692;28;20048;-77
2022/05/13 11:04:15;;;;;;;16.88;11.23;;;;;;;16.44;95.89;96636.34;5064550;28;20059;-78
2022/05/13 11:06:55;;;;;;;15.52;11.00;;;;;;;16.42;96.32;96638.63;5065854;28;20053;-77
2022/05/13 11:09:32;;;;;;;15.75;11.25;;;;;;;16.39;96.36;96647.59;5065542;28;20060;-78
2022/05/13 11:12:08;;;;;;;20.60;10.75;;;;;;;16.41;95.98;96648.03;5066028;28;20793;-77
2022/05/13 11:14:58;;;;;;;13.50;9.85;;;;;;;16.34;95.45;96642.34;5066938;28;20044;-78
2022/05/13 11:17:38;;;;;;;19.95;10.07;;;;;;;16.31;95.78;96654.03;5066698;28;20405;-77
2022/05/13 11:20:17;;;;;;;28.83;13.27;;;;;;;16.28;96.23;96638.22;5065251;28;20048;-77
2022/05/13 11:22:50;;;;;;;15.75;10.75;;;;;;;16.28;96.30;96638.22;5065964;28;20053;-77
2022/05/13 11:28:32;;;;;;;17.05;11.82;;;;;;;16.01;97.08;96642.50;5065049;28;20063;-77
2022/05/13 11:31:03;;;;;;;18.90;11.82;;;;;;;16.00;97.88;96640.13;5065473;28;20568;-78
2022/05/13 11:33:40;;;;;;;16.98;11.00;;;;;;;15.93;97.92;96637.16;5064962;28;20605;-79
2022/05/13 11:36:31;;;;;;;19.02;10.70;;;;;;;16.01;97.57;96633.47;5064479;28;20056;-78
2022/05/13 11:39:27;;;;;;;109.35;75.05;;;;;;;16.10;97.01;96632.19;5065952;28;20044;-78
2022/05/13 11:42:05;;;;;;;14.70;9.98;;;;;;;16.18;96.85;96620.28;5070544;28;20045;-78
2022/05/13 11:44:48;;;;;;;20.13;10.35;;;;;;;16.23;96.58;96618.44;5083435;28;20047;-78
2022/05/13 11:47:20;;;;;;;233.50;75.47;;;;;;;16.16;96.45;96614.31;5071368;28;20127;-78
2022/05/13 11:49:49;;;;;;;16.52;11.13;;;;;;;16.21;97.19;96605.03;5069716;28;20049;-77
2022/05/13 11:52:44;;;;;;;367.15;166.70;;;;;;;16.30;98.21;96602.97;5068361;28;20051;-78
2022/05/13 11:55:16;;;;;;;13.48;8.30;;;;;;;16.34;97.56;96606.63;5068397;28;20487;-77
2022/05/13 11:57:45;;;;;;;479.38;139.73;;;;;;;16.30;97.34;96600.22;5069032;28;20770;-77
2022/05/13 12:00:37;;;;;;;12.85;9.85;;;;;;;16.31;97.62;96621.03;5068227;28;20057;-78